Sant Andreu de Llavaneres, Spain
Current Conditions -  °F | °C
As of 1:00 PM on Friday 28 Nov 2014 (Local Time) from LELL Reporting Station
Scattered Clouds Scattered Clouds  
Wind Chill: 64°   Ceiling: Unl
Heat Index: 64°   Visibility: 6mi
Dew Point: 57°   Wind: 9mph
Humidity: 77%   Direction: 110°ESE
Pressure: 29.41"   Gusts: NA
Location:  41.57°N, 2.48°E
Report Text: LELL 281200Z 11008KT 070V140 9999 SCT022 SCT035 18/14 Q0996
Loading
Personal Weather Stations






























Interactive Weather Map New forecast layout! Learn more

10-Day Weather Forecast

Advertisements
Track Severe Weather on mobile